sensor_id;sensor_type;location;lat;lon;timestamp;P1;durP1;ratioP1;P2;durP2;ratioP2
78336;SDS011;67610;51.588;7.002;2023-04-08T00:01:56;15.40;;;8.80;;
78336;SDS011;67610;51.588;7.002;2023-04-08T00:04:22;14.60;;;7.80;;
78336;SDS011;67610;51.588;7.002;2023-04-08T00:06:47;13.13;;;7.82;;
78336;SDS011;67610;51.588;7.002;2023-04-08T00:09:13;15.25;;;8.50;;
78336;SDS011;67610;51.588;7.002;2023-04-08T00:11:38;13.38;;;8.10;;
78336;SDS011;67610;51.588;7.002;2023-04-08T00:14:03;14.95;;;8.25;;
78336;SDS011;67610;51.588;7.002;2023-04-08T00:16:29;14.10;;;8.48;;
78336;SDS011;67610;51.588;7.002;2023-04-08T00:18:54;14.23;;;8.50;;
78336;SDS011;67610;51.588;7.002;2023-04-08T00:21:20;13.63;;;8.48;;
78336;SDS011;67610;51.588;7.002;2023-04-08T00:23:47;14.32;;;8.20;;
78336;SDS011;67610;51.588;7.002;2023-04-08T00:26:13;13.40;;;7.68;;
78336;SDS011;67610;51.588;7.002;2023-04-08T00:28:38;13.68;;;8.23;;
78336;SDS011;67610;51.588;7.002;2023-04-08T00:31:03;14.68;;;8.75;;
78336;SDS011;67610;51.588;7.002;2023-04-08T00:33:29;15.13;;;8.25;;
78336;SDS011;67610;51.588;7.002;2023-04-08T00:35:57;15.60;;;8.65;;
78336;SDS011;67610;51.588;7.002;2023-04-08T00:38:22;14.45;;;8.43;;
78336;SDS011;67610;51.588;7.002;2023-04-08T00:40:47;14.00;;;7.80;;
78336;SDS011;67610;51.588;7.002;2023-04-08T00:43:16;12.52;;;7.97;;
78336;SDS011;67610;51.588;7.002;2023-04-08T00:45:44;12.82;;;7.90;;
78336;SDS011;67610;51.588;7.002;2023-04-08T00:48:10;11.70;;;7.50;;
78336;SDS011;67610;51.588;7.002;2023-04-08T00:50:35;12.52;;;7.53;;
78336;SDS011;67610;51.588;7.002;2023-04-08T00:53:02;14.68;;;8.00;;
78336;SDS011;67610;51.588;7.002;2023-04-08T00:55:27;15.38;;;8.90;;
78336;SDS011;67610;51.588;7.002;2023-04-08T00:57:53;14.13;;;8.20;;
78336;SDS011;67610;51.588;7.002;2023-04-08T01:00:19;13.75;;;8.02;;
78336;SDS011;67610;51.588;7.002;2023-04-08T01:05:34;14.55;;;8.02;;
78336;SDS011;67610;51.588;7.002;2023-04-08T01:08:05;15.65;;;8.50;;
78336;SDS011;67610;51.588;7.002;2023-04-08T01:10:35;12.95;;;7.80;;
78336;SDS011;67610;51.588;7.002;2023-04-08T01:13:03;14.32;;;8.52;;
78336;SDS011;67610;51.588;7.002;2023-04-08T01:15:32;14.65;;;8.68;;
78336;SDS011;67610;51.588;7.002;2023-04-08T01:18:00;13.35;;;7.82;;
78336;SDS011;67610;51.588;7.002;2023-04-08T01:20:31;14.95;;;8.73;;
78336;SDS011;67610;51.588;7.002;2023-04-08T01:25:34;13.98;;;8.43;;
78336;SDS011;67610;51.588;7.002;2023-04-08T01:28:09;14.02;;;8.27;;
78336;SDS011;67610;51.588;7.002;2023-04-08T01:30:39;14.73;;;9.20;;
78336;SDS011;67610;51.588;7.002;2023-04-08T01:33:07;14.63;;;9.18;;
78336;SDS011;67610;51.588;7.002;2023-04-08T01:35:36;15.38;;;8.95;;
78336;SDS011;67610;51.588;7.002;2023-04-08T01:38:04;14.35;;;8.25;;
78336;SDS011;67610;51.588;7.002;2023-04-08T01:40:33;13.93;;;8.23;;
78336;SDS011;67610;51.588;7.002;2023-04-08T01:43:00;13.30;;;8.63;;
78336;SDS011;67610;51.588;7.002;2023-04-08T01:45:27;13.18;;;8.05;;
78336;SDS011;67610;51.588;7.002;2023-04-08T01:47:54;13.18;;;8.25;;
78336;SDS011;67610;51.588;7.002;2023-04-08T01:50:21;13.60;;;8.23;;
78336;SDS011;67610;51.588;7.002;2023-04-08T01:52:48;12.68;;;7.88;;
78336;SDS011;67610;51.588;7.002;2023-04-08T01:55:17;14.15;;;8.60;;
78336;SDS011;67610;51.588;7.002;2023-04-08T01:57:46;14.05;;;8.63;;
78336;SDS011;67610;51.588;7.002;2023-04-08T02:00:14;16.95;;;9.02;;
78336;SDS011;67610;51.588;7.002;2023-04-08T02:02:44;14.73;;;8.40;;
78336;SDS011;67610;51.588;7.002;2023-04-08T02:05:11;23.08;;;9.25;;
78336;SDS011;67610;51.588;7.002;2023-04-08T02:07:37;14.57;;;8.43;;
78336;SDS011;67610;51.588;7.002;2023-04-08T02:10:03;14.15;;;8.05;;
78336;SDS011;67610;51.588;7.002;2023-04-08T02:12:29;12.75;;;7.85;;
78336;SDS011;67610;51.588;7.002;2023-04-08T02:14:55;12.30;;;7.43;;
78336;SDS011;67610;51.588;7.002;2023-04-08T02:17:42;12.02;;;7.10;;
78336;SDS011;67610;51.588;7.002;2023-04-08T02:20:11;10.23;;;6.40;;
78336;SDS011;67610;51.588;7.002;2023-04-08T02:22:43;11.40;;;7.13;;
78336;SDS011;67610;51.588;7.002;2023-04-08T02:25:12;10.40;;;6.60;;
78336;SDS011;67610;51.588;7.002;2023-04-08T02:27:39;9.27;;;6.30;;
78336;SDS011;67610;51.588;7.002;2023-04-08T02:30:07;8.70;;;6.53;;
78336;SDS011;67610;51.588;7.002;2023-04-08T02:32:34;11.38;;;6.90;;
78336;SDS011;67610;51.588;7.002;2023-04-08T02:35:00;12.82;;;6.47;;
78336;SDS011;67610;51.588;7.002;2023-04-08T02:37:28;10.30;;;6.60;;
78336;SDS011;67610;51.588;7.002;2023-04-08T02:39:54;8.77;;;6.40;;
78336;SDS011;67610;51.588;7.002;2023-04-08T02:42:20;16.60;;;6.97;;
78336;SDS011;67610;51.588;7.002;2023-04-08T02:44:45;10.27;;;6.95;;
78336;SDS011;67610;51.588;7.002;2023-04-08T02:47:11;11.35;;;6.80;;
78336;SDS011;67610;51.588;7.002;2023-04-08T02:49:36;9.35;;;6.18;;
78336;SDS011;67610;51.588;7.002;2023-04-08T02:52:03;8.85;;;5.90;;
78336;SDS011;67610;51.588;7.002;2023-04-08T02:54:28;13.82;;;6.57;;
78336;SDS011;67610;51.588;7.002;2023-04-08T02:56:54;8.02;;;5.63;;
78336;SDS011;67610;51.588;7.002;2023-04-08T02:59:20;8.13;;;5.65;;
78336;SDS011;67610;51.588;7.002;2023-04-08T03:01:45;9.52;;;6.45;;
78336;SDS011;67610;51.588;7.002;2023-04-08T03:04:10;8.48;;;5.80;;
78336;SDS011;67610;51.588;7.002;2023-04-08T03:06:36;8.30;;;5.88;;
78336;SDS011;67610;51.588;7.002;2023-04-08T03:09:01;8.93;;;5.97;;
78336;SDS011;67610;51.588;7.002;2023-04-08T03:11:27;9.30;;;6.07;;
78336;SDS011;67610;51.588;7.002;2023-04-08T03:13:52;8.80;;;6.05;;
78336;SDS011;67610;51.588;7.002;2023-04-08T03:16:17;9.48;;;6.28;;
78336;SDS011;67610;51.588;7.002;2023-04-08T03:18:43;9.50;;;5.82;;
78336;SDS011;67610;51.588;7.002;2023-04-08T03:21:08;8.98;;;6.03;;
78336;SDS011;67610;51.588;7.002;2023-04-08T03:23:35;11.23;;;6.22;;
78336;SDS011;67610;51.588;7.002;2023-04-08T03:26:00;9.48;;;6.30;;
78336;SDS011;67610;51.588;7.002;2023-04-08T03:28:27;9.57;;;6.03;;
78336;SDS011;67610;51.588;7.002;2023-04-08T03:30:52;10.25;;;5.95;;
78336;SDS011;67610;51.588;7.002;2023-04-08T03:33:18;9.57;;;6.30;;
78336;SDS011;67610;51.588;7.002;2023-04-08T03:35:43;9.63;;;6.30;;
78336;SDS011;67610;51.588;7.002;2023-04-08T03:38:09;9.88;;;6.22;;
78336;SDS011;67610;51.588;7.002;2023-04-08T03:40:35;8.68;;;5.82;;
78336;SDS011;67610;51.588;7.002;2023-04-08T03:43:00;8.77;;;6.28;;
78336;SDS011;67610;51.588;7.002;2023-04-08T03:45:25;8.85;;;6.03;;
78336;SDS011;67610;51.588;7.002;2023-04-08T03:47:51;10.73;;;6.63;;
78336;SDS011;67610;51.588;7.002;2023-04-08T03:50:16;9.88;;;6.00;;
78336;SDS011;67610;51.588;7.002;2023-04-08T03:52:42;9.43;;;6.38;;
78336;SDS011;67610;51.588;7.002;2023-04-08T03:55:07;10.23;;;6.38;;
78336;SDS011;67610;51.588;7.002;2023-04-08T03:57:33;9.15;;;6.28;;
78336;SDS011;67610;51.588;7.002;2023-04-08T03:59:58;10.88;;;6.65;;
78336;SDS011;67610;51.588;7.002;2023-04-08T04:02:25;9.35;;;5.82;;
78336;SDS011;67610;51.588;7.002;2023-04-08T04:04:51;10.38;;;6.10;;
78336;SDS011;67610;51.588;7.002;2023-04-08T04:07:16;10.15;;;6.00;;
78336;SDS011;67610;51.588;7.002;2023-04-08T04:09:41;9.65;;;6.35;;
78336;SDS011;67610;51.588;7.002;2023-04-08T04:12:07;9.77;;;6.07;;
78336;SDS011;67610;51.588;7.002;2023-04-08T04:14:32;8.02;;;5.53;;
78336;SDS011;67610;51.588;7.002;2023-04-08T04:16:57;8.80;;;5.88;;
78336;SDS011;67610;51.588;7.002;2023-04-08T04:19:28;8.95;;;5.88;;
78336;SDS011;67610;51.588;7.002;2023-04-08T04:21:55;8.93;;;6.43;;
78336;SDS011;67610;51.588;7.002;2023-04-08T04:24:20;13.90;;;6.93;;
78336;SDS011;67610;51.588;7.002;2023-04-08T04:26:46;11.60;;;7.30;;
78336;SDS011;67610;51.588;7.002;2023-04-08T04:29:11;11.23;;;6.88;;
78336;SDS011;67610;51.588;7.002;2023-04-08T04:31:37;9.48;;;6.25;;
78336;SDS011;67610;51.588;7.002;2023-04-08T04:34:02;9.07;;;6.07;;
78336;SDS011;67610;51.588;7.002;2023-04-08T04:36:27;9.38;;;6.32;;
78336;SDS011;67610;51.588;7.002;2023-04-08T04:38:53;9.50;;;6.53;;
78336;SDS011;67610;51.588;7.002;2023-04-08T04:41:18;8.65;;;5.97;;
78336;SDS011;67610;51.588;7.002;2023-04-08T04:43:43;9.38;;;5.93;;
78336;SDS011;67610;51.588;7.002;2023-04-08T04:46:09;9.07;;;6.20;;
78336;SDS011;67610;51.588;7.002;2023-04-08T04:48:35;10.25;;;6.43;;
78336;SDS011;67610;51.588;7.002;2023-04-08T04:51:00;8.73;;;6.38;;
78336;SDS011;67610;51.588;7.002;2023-04-08T04:53:27;9.80;;;6.43;;
78336;SDS011;67610;51.588;7.002;2023-04-08T04:55:53;10.07;;;6.63;;
78336;SDS011;67610;51.588;7.002;2023-04-08T04:58:19;9.02;;;6.70;;
78336;SDS011;67610;51.588;7.002;2023-04-08T05:00:45;10.90;;;6.22;;
78336;SDS011;67610;51.588;7.002;2023-04-08T05:03:11;8.32;;;5.90;;
78336;SDS011;67610;51.588;7.002;2023-04-08T05:05:36;9.90;;;6.43;;
78336;SDS011;67610;51.588;7.002;2023-04-08T05:08:02;9.80;;;6.32;;
78336;SDS011;67610;51.588;7.002;2023-04-08T05:10:27;9.30;;;5.97;;
78336;SDS011;67610;51.588;7.002;2023-04-08T05:12:53;9.27;;;6.43;;
78336;SDS011;67610;51.588;7.002;2023-04-08T05:15:18;9.57;;;6.50;;
78336;SDS011;67610;51.588;7.002;2023-04-08T05:17:44;8.55;;;5.55;;
78336;SDS011;67610;51.588;7.002;2023-04-08T05:20:10;8.23;;;5.85;;
78336;SDS011;67610;51.588;7.002;2023-04-08T05:22:37;8.85;;;5.68;;
78336;SDS011;67610;51.588;7.002;2023-04-08T05:25:04;9.07;;;6.40;;
78336;SDS011;67610;51.588;7.002;2023-04-08T05:27:30;9.68;;;6.15;;
78336;SDS011;67610;51.588;7.002;2023-04-08T05:29:56;8.80;;;5.43;;
78336;SDS011;67610;51.588;7.002;2023-04-08T05:32:22;8.82;;;5.88;;
78336;SDS011;67610;51.588;7.002;2023-04-08T05:34:47;8.70;;;5.88;;
78336;SDS011;67610;51.588;7.002;2023-04-08T05:37:13;8.55;;;6.07;;
78336;SDS011;67610;51.588;7.002;2023-04-08T05:39:38;9.18;;;6.10;;
78336;SDS011;67610;51.588;7.002;2023-04-08T05:42:04;9.30;;;6.25;;
78336;SDS011;67610;51.588;7.002;2023-04-08T05:44:29;8.82;;;5.50;;
78336;SDS011;67610;51.588;7.002;2023-04-08T05:46:55;8.82;;;6.03;;
78336;SDS011;67610;51.588;7.002;2023-04-08T05:49:21;8.85;;;6.38;;
78336;SDS011;67610;51.588;7.002;2023-04-08T05:51:47;9.07;;;6.20;;
78336;SDS011;67610;51.588;7.002;2023-04-08T05:54:12;7.85;;;5.78;;
78336;SDS011;67610;51.588;7.002;2023-04-08T05:56:37;8.55;;;5.78;;
78336;SDS011;67610;51.588;7.002;2023-04-08T05:59:03;7.40;;;5.50;;
78336;SDS011;67610;51.588;7.002;2023-04-08T06:01:28;7.82;;;5.85;;
78336;SDS011;67610;51.588;7.002;2023-04-08T06:03:54;7.82;;;5.53;;
78336;SDS011;67610;51.588;7.002;2023-04-08T06:06:20;8.70;;;5.90;;
78336;SDS011;67610;51.588;7.002;2023-04-08T06:08:46;9.00;;;6.07;;
78336;SDS011;67610;51.588;7.002;2023-04-08T06:11:12;7.78;;;5.82;;
78336;SDS011;67610;51.588;7.002;2023-04-08T06:13:37;8.82;;;6.18;;
78336;SDS011;67610;51.588;7.002;2023-04-08T06:16:09;10.13;;;6.72;;
78336;SDS011;67610;51.588;7.002;2023-04-08T06:18:36;10.35;;;7.03;;
78336;SDS011;67610;51.588;7.002;2023-04-08T06:21:02;11.32;;;6.57;;
78336;SDS011;67610;51.588;7.002;2023-04-08T06:23:27;10.93;;;6.97;;
78336;SDS011;67610;51.588;7.002;2023-04-08T06:25:52;11.13;;;6.80;;
78336;SDS011;67610;51.588;7.002;2023-04-08T06:28:18;10.40;;;7.38;;
78336;SDS011;67610;51.588;7.002;2023-04-08T06:30:43;11.05;;;7.75;;
78336;SDS011;67610;51.588;7.002;2023-04-08T06:33:09;11.02;;;7.47;;
78336;SDS011;67610;51.588;7.002;2023-04-08T06:35:34;11.10;;;7.15;;
78336;SDS011;67610;51.588;7.002;2023-04-08T06:38:01;10.48;;;6.85;;
78336;SDS011;67610;51.588;7.002;2023-04-08T06:40:27;10.75;;;7.20;;
78336;SDS011;67610;51.588;7.002;2023-04-08T06:42:52;11.27;;;6.57;;
78336;SDS011;67610;51.588;7.002;2023-04-08T06:45:18;11.35;;;7.65;;
78336;SDS011;67610;51.588;7.002;2023-04-08T06:47:43;10.90;;;7.15;;
78336;SDS011;67610;51.588;7.002;2023-04-08T06:50:09;11.70;;;7.47;;
78336;SDS011;67610;51.588;7.002;2023-04-08T06:52:35;11.90;;;7.70;;
78336;SDS011;67610;51.588;7.002;2023-04-08T06:55:00;13.88;;;8.18;;
78336;SDS011;67610;51.588;7.002;2023-04-08T06:57:27;12.20;;;7.70;;
78336;SDS011;67610;51.588;7.002;2023-04-08T06:59:55;12.27;;;8.60;;
78336;SDS011;67610;51.588;7.002;2023-04-08T07:02:22;13.57;;;8.93;;
78336;SDS011;67610;51.588;7.002;2023-04-08T07:04:47;13.43;;;8.77;;
78336;SDS011;67610;51.588;7.002;2023-04-08T07:07:13;12.75;;;8.27;;
78336;SDS011;67610;51.588;7.002;2023-04-08T07:09:39;12.02;;;8.55;;
78336;SDS011;67610;51.588;7.002;2023-04-08T07:12:07;12.95;;;8.18;;
78336;SDS011;67610;51.588;7.002;2023-04-08T07:14:33;12.32;;;7.75;;
78336;SDS011;67610;51.588;7.002;2023-04-08T07:16:59;13.95;;;8.07;;
78336;SDS011;67610;51.588;7.002;2023-04-08T07:19:24;11.60;;;7.90;;
78336;SDS011;67610;51.588;7.002;2023-04-08T07:21:50;12.27;;;7.35;;
78336;SDS011;67610;51.588;7.002;2023-04-08T07:24:16;13.80;;;8.10;;
78336;SDS011;67610;51.588;7.002;2023-04-08T07:26:42;13.02;;;7.90;;
78336;SDS011;67610;51.588;7.002;2023-04-08T07:29:08;13.20;;;8.60;;
78336;SDS011;67610;51.588;7.002;2023-04-08T07:31:33;11.95;;;7.40;;
78336;SDS011;67610;51.588;7.002;2023-04-08T07:33:59;11.50;;;7.75;;
78336;SDS011;67610;51.588;7.002;2023-04-08T07:36:24;10.27;;;7.13;;
78336;SDS011;67610;51.588;7.002;2023-04-08T07:38:50;9.85;;;6.55;;
78336;SDS011;67610;51.588;7.002;2023-04-08T07:41:16;10.65;;;7.03;;
78336;SDS011;67610;51.588;7.002;2023-04-08T07:43:41;11.23;;;6.60;;
78336;SDS011;67610;51.588;7.002;2023-04-08T07:46:06;10.45;;;6.97;;
78336;SDS011;67610;51.588;7.002;2023-04-08T07:48:33;12.00;;;6.93;;
78336;SDS011;67610;51.588;7.002;2023-04-08T07:51:05;10.18;;;6.82;;
78336;SDS011;67610;51.588;7.002;2023-04-08T07:53:33;11.10;;;6.30;;
78336;SDS011;67610;51.588;7.002;2023-04-08T07:56:00;11.13;;;6.72;;
78336;SDS011;67610;51.588;7.002;2023-04-08T07:58:28;10.45;;;6.35;;
78336;SDS011;67610;51.588;7.002;2023-04-08T08:00:54;9.77;;;6.50;;
78336;SDS011;67610;51.588;7.002;2023-04-08T08:03:21;9.07;;;5.43;;
78336;SDS011;67610;51.588;7.002;2023-04-08T08:05:46;9.48;;;6.35;;
78336;SDS011;67610;51.588;7.002;2023-04-08T08:08:12;10.13;;;6.53;;
78336;SDS011;67610;51.588;7.002;2023-04-08T08:10:38;12.23;;;6.95;;
78336;SDS011;67610;51.588;7.002;2023-04-08T08:13:05;9.25;;;6.70;;
78336;SDS011;67610;51.588;7.002;2023-04-08T08:15:31;17.45;;;9.23;;
78336;SDS011;67610;51.588;7.002;2023-04-08T08:17:57;12.15;;;8.32;;
78336;SDS011;67610;51.588;7.002;2023-04-08T08:20:22;10.98;;;7.45;;
78336;SDS011;67610;51.588;7.002;2023-04-08T08:22:48;11.05;;;7.22;;
78336;SDS011;67610;51.588;7.002;2023-04-08T08:25:15;8.80;;;6.35;;
78336;SDS011;67610;51.588;7.002;2023-04-08T08:27:41;7.57;;;5.75;;
78336;SDS011;67610;51.588;7.002;2023-04-08T08:30:09;8.85;;;5.97;;
78336;SDS011;67610;51.588;7.002;2023-04-08T08:32:36;9.40;;;5.90;;
78336;SDS011;67610;51.588;7.002;2023-04-08T08:35:01;9.25;;;5.80;;
78336;SDS011;67610;51.588;7.002;2023-04-08T08:37:27;8.52;;;5.88;;
78336;SDS011;67610;51.588;7.002;2023-04-08T08:39:53;9.02;;;5.90;;
78336;SDS011;67610;51.588;7.002;2023-04-08T08:42:19;8.95;;;5.97;;
78336;SDS011;67610;51.588;7.002;2023-04-08T08:44:49;9.05;;;5.68;;
78336;SDS011;67610;51.588;7.002;2023-04-08T08:47:14;8.07;;;5.30;;
78336;SDS011;67610;51.588;7.002;2023-04-08T08:49:40;8.50;;;5.40;;
78336;SDS011;67610;51.588;7.002;2023-04-08T08:52:06;10.35;;;6.90;;
78336;SDS011;67610;51.588;7.002;2023-04-08T08:54:32;9.50;;;6.50;;
78336;SDS011;67610;51.588;7.002;2023-04-08T08:56:57;9.57;;;6.55;;
78336;SDS011;67610;51.588;7.002;2023-04-08T08:59:24;9.00;;;6.20;;
78336;SDS011;67610;51.588;7.002;2023-04-08T09:01:50;10.80;;;5.85;;
78336;SDS011;67610;51.588;7.002;2023-04-08T09:04:16;9.05;;;6.50;;
78336;SDS011;67610;51.588;7.002;2023-04-08T09:06:44;10.57;;;6.97;;
78336;SDS011;67610;51.588;7.002;2023-04-08T09:09:11;8.95;;;5.97;;
78336;SDS011;67610;51.588;7.002;2023-04-08T09:11:39;8.23;;;6.10;;
78336;SDS011;67610;51.588;7.002;2023-04-08T09:14:24;8.40;;;5.75;;
78336;SDS011;67610;51.588;7.002;2023-04-08T09:16:50;7.78;;;5.45;;
78336;SDS011;67610;51.588;7.002;2023-04-08T09:19:16;6.97;;;5.25;;
78336;SDS011;67610;51.588;7.002;2023-04-08T09:21:44;7.43;;;5.68;;
78336;SDS011;67610;51.588;7.002;2023-04-08T09:26:52;7.53;;;4.97;;
78336;SDS011;67610;51.588;7.002;2023-04-08T09:29:18;6.78;;;4.93;;
78336;SDS011;67610;51.588;7.002;2023-04-08T09:31:48;7.05;;;5.10;;
78336;SDS011;67610;51.588;7.002;2023-04-08T09:34:20;8.27;;;6.05;;
78336;SDS011;67610;51.588;7.002;2023-04-08T09:36:50;8.63;;;5.35;;
78336;SDS011;67610;51.588;7.002;2023-04-08T09:39:19;7.90;;;5.40;;
78336;SDS011;67610;51.588;7.002;2023-04-08T09:41:47;9.43;;;5.22;;
78336;SDS011;67610;51.588;7.002;2023-04-08T09:44:15;7.68;;;5.30;;
78336;SDS011;67610;51.588;7.002;2023-04-08T09:49:26;6.85;;;4.78;;
78336;SDS011;67610;51.588;7.002;2023-04-08T09:51:58;8.07;;;5.28;;
78336;SDS011;67610;51.588;7.002;2023-04-08T10:00:20;6.50;;;4.40;;
78336;SDS011;67610;51.588;7.002;2023-04-08T10:05:53;8.20;;;4.80;;
78336;SDS011;67610;51.588;7.002;2023-04-08T10:08:39;6.80;;;4.68;;
78336;SDS011;67610;51.588;7.002;2023-04-08T10:11:06;6.97;;;5.05;;
78336;SDS011;67610;51.588;7.002;2023-04-08T10:13:32;10.00;;;5.55;;
78336;SDS011;67610;51.588;7.002;2023-04-08T10:18:47;8.52;;;5.57;;
78336;SDS011;67610;51.588;7.002;2023-04-08T10:21:38;7.80;;;4.80;;
78336;SDS011;67610;51.588;7.002;2023-04-08T10:24:11;13.45;;;7.47;;
78336;SDS011;67610;51.588;7.002;2023-04-08T10:26:37;8.00;;;5.43;;
78336;SDS011;67610;51.588;7.002;2023-04-08T10:31:42;7.68;;;5.13;;
78336;SDS011;67610;51.588;7.002;2023-04-08T10:34:17;6.32;;;4.50;;
78336;SDS011;67610;51.588;7.002;2023-04-08T10:36:44;9.50;;;5.03;;
78336;SDS011;67610;51.588;7.002;2023-04-08T10:39:13;7.50;;;5.20;;
78336;SDS011;67610;51.588;7.002;2023-04-08T10:41:46;7.30;;;4.60;;
78336;SDS011;67610;51.588;7.002;2023-04-08T10:44:19;7.18;;;4.57;;
78336;SDS011;67610;51.588;7.002;2023-04-08T10:46:49;7.53;;;4.47;;
78336;SDS011;67610;51.588;7.002;2023-04-08T10:49:16;7.10;;;4.28;;
78336;SDS011;67610;51.588;7.002;2023-04-08T10:51:43;8.13;;;4.82;;
78336;SDS011;67610;51.588;7.002;2023-04-08T10:54:12;6.10;;;4.45;;
78336;SDS011;67610;51.588;7.002;2023-04-08T10:59:15;7.97;;;4.82;;
78336;SDS011;67610;51.588;7.002;2023-04-08T11:01:46;5.18;;;3.75;;
78336;SDS011;67610;51.588;7.002;2023-04-08T11:04:12;7.63;;;4.57;;
78336;SDS011;67610;51.588;7.002;2023-04-08T11:06:38;8.45;;;4.75;;
78336;SDS011;67610;51.588;7.002;2023-04-08T11:09:06;5.95;;;4.20;;
78336;SDS011;67610;51.588;7.002;2023-04-08T11:11:31;6.72;;;4.65;;
78336;SDS011;67610;51.588;7.002;2023-04-08T11:14:00;6.65;;;3.95;;
78336;SDS011;67610;51.588;7.002;2023-04-08T11:16:31;6.82;;;4.78;;
78336;SDS011;67610;51.588;7.002;2023-04-08T11:18:57;6.60;;;4.50;;
78336;SDS011;67610;51.588;7.002;2023-04-08T11:21:23;6.45;;;4.40;;
78336;SDS011;67610;51.588;7.002;2023-04-08T11:23:49;6.13;;;4.57;;
78336;SDS011;67610;51.588;7.002;2023-04-08T11:26:16;8.18;;;4.75;;
78336;SDS011;67610;51.588;7.002;2023-04-08T11:28:43;8.25;;;5.00;;
78336;SDS011;67610;51.588;7.002;2023-04-08T11:31:09;6.78;;;5.03;;
78336;SDS011;67610;51.588;7.002;2023-04-08T11:33:35;7.57;;;4.95;;
78336;SDS011;67610;51.588;7.002;2023-04-08T11:36:01;6.28;;;4.20;;
78336;SDS011;67610;51.588;7.002;2023-04-08T11:38:30;7.13;;;4.57;;
78336;SDS011;67610;51.588;7.002;2023-04-08T11:40:56;6.55;;;4.68;;
78336;SDS011;67610;51.588;7.002;2023-04-08T11:43:22;6.55;;;4.63;;
78336;SDS011;67610;51.588;7.002;2023-04-08T11:45:48;7.40;;;4.78;;
78336;SDS011;67610;51.588;7.002;2023-04-08T11:48:15;6.28;;;4.35;;
78336;SDS011;67610;51.588;7.002;2023-04-08T11:50:41;8.23;;;5.20;;
78336;SDS011;67610;51.588;7.002;2023-04-08T11:53:23;7.82;;;5.30;;
78336;SDS011;67610;51.588;7.002;2023-04-08T11:55:49;6.53;;;4.60;;
78336;SDS011;67610;51.588;7.002;2023-04-08T11:58:15;6.07;;;4.28;;
78336;SDS011;67610;51.588;7.002;2023-04-08T12:00:41;6.40;;;4.80;;
78336;SDS011;67610;51.588;7.002;2023-04-08T12:03:07;6.93;;;4.55;;
78336;SDS011;67610;51.588;7.002;2023-04-08T12:05:34;5.63;;;4.43;;
78336;SDS011;67610;51.588;7.002;2023-04-08T12:08:00;7.57;;;4.68;;
78336;SDS011;67610;51.588;7.002;2023-04-08T12:10:25;6.68;;;4.88;;
78336;SDS011;67610;51.588;7.002;2023-04-08T12:12:52;6.05;;;4.47;;
78336;SDS011;67610;51.588;7.002;2023-04-08T12:15:18;6.93;;;4.55;;
78336;SDS011;67610;51.588;7.002;2023-04-08T12:17:43;7.63;;;5.13;;
78336;SDS011;67610;51.588;7.002;2023-04-08T12:20:09;6.07;;;4.43;;
78336;SDS011;67610;51.588;7.002;2023-04-08T12:22:36;8.30;;;4.75;;
78336;SDS011;67610;51.588;7.002;2023-04-08T12:25:02;8.10;;;4.78;;
78336;SDS011;67610;51.588;7.002;2023-04-08T12:27:28;6.75;;;4.68;;
78336;SDS011;67610;51.588;7.002;2023-04-08T12:29:54;6.78;;;4.78;;
78336;SDS011;67610;51.588;7.002;2023-04-08T12:32:19;6.95;;;4.97;;
78336;SDS011;67610;51.588;7.002;2023-04-08T12:34:45;7.38;;;4.72;;
78336;SDS011;67610;51.588;7.002;2023-04-08T12:37:11;7.05;;;4.93;;
78336;SDS011;67610;51.588;7.002;2023-04-08T12:39:36;7.07;;;4.70;;
78336;SDS011;67610;51.588;7.002;2023-04-08T12:42:02;6.93;;;4.65;;
78336;SDS011;67610;51.588;7.002;2023-04-08T12:44:29;7.65;;;4.75;;
78336;SDS011;67610;51.588;7.002;2023-04-08T12:46:55;7.43;;;5.00;;
78336;SDS011;67610;51.588;7.002;2023-04-08T12:49:29;7.28;;;5.13;;
78336;SDS011;67610;51.588;7.002;2023-04-08T12:51:59;7.15;;;4.82;;
78336;SDS011;67610;51.588;7.002;2023-04-08T12:54:24;9.13;;;5.63;;
78336;SDS011;67610;51.588;7.002;2023-04-08T12:56:55;6.85;;;5.72;;
78336;SDS011;67610;51.588;7.002;2023-04-08T12:59:27;8.50;;;5.53;;
78336;SDS011;67610;51.588;7.002;2023-04-08T13:01:59;8.40;;;5.72;;
78336;SDS011;67610;51.588;7.002;2023-04-08T13:04:24;7.65;;;5.20;;
78336;SDS011;67610;51.588;7.002;2023-04-08T13:07:08;8.27;;;5.90;;
78336;SDS011;67610;51.588;7.002;2023-04-08T13:09:34;8.02;;;5.68;;
78336;SDS011;67610;51.588;7.002;2023-04-08T13:11:59;7.80;;;5.60;;
78336;SDS011;67610;51.588;7.002;2023-04-08T13:14:25;7.65;;;5.80;;
78336;SDS011;67610;51.588;7.002;2023-04-08T13:16:57;7.88;;;5.50;;
78336;SDS011;67610;51.588;7.002;2023-04-08T13:19:22;7.43;;;5.43;;
78336;SDS011;67610;51.588;7.002;2023-04-08T13:21:48;8.70;;;5.80;;
78336;SDS011;67610;51.588;7.002;2023-04-08T13:24:16;9.93;;;5.88;;
78336;SDS011;67610;51.588;7.002;2023-04-08T13:26:46;8.27;;;6.13;;
78336;SDS011;67610;51.588;7.002;2023-04-08T13:32:35;8.02;;;5.93;;
78336;SDS011;67610;51.588;7.002;2023-04-08T13:35:16;8.75;;;5.40;;
78336;SDS011;67610;51.588;7.002;2023-04-08T13:38:23;9.68;;;5.82;;
78336;SDS011;67610;51.588;7.002;2023-04-08T13:41:00;9.68;;;6.70;;
78336;SDS011;67610;51.588;7.002;2023-04-08T13:43:29;8.38;;;5.75;;
78336;SDS011;67610;51.588;7.002;2023-04-08T13:46:06;9.13;;;6.28;;
78336;SDS011;67610;51.588;7.002;2023-04-08T13:49:07;9.57;;;6.18;;
78336;SDS011;67610;51.588;7.002;2023-04-08T13:51:51;9.02;;;6.40;;
78336;SDS011;67610;51.588;7.002;2023-04-08T13:57:49;8.23;;;6.05;;
78336;SDS011;67610;51.588;7.002;2023-04-08T14:00:14;9.52;;;6.95;;
78336;SDS011;67610;51.588;7.002;2023-04-08T14:02:46;8.30;;;6.00;;
78336;SDS011;67610;51.588;7.002;2023-04-08T14:05:18;8.35;;;6.35;;
78336;SDS011;67610;51.588;7.002;2023-04-08T14:07:46;8.73;;;6.15;;
78336;SDS011;67610;51.588;7.002;2023-04-08T14:10:11;8.75;;;6.05;;
78336;SDS011;67610;51.588;7.002;2023-04-08T14:12:38;9.02;;;6.10;;
78336;SDS011;67610;51.588;7.002;2023-04-08T14:15:04;9.60;;;6.55;;
78336;SDS011;67610;51.588;7.002;2023-04-08T14:17:29;10.38;;;6.80;;
78336;SDS011;67610;51.588;7.002;2023-04-08T14:19:55;11.43;;;7.57;;
78336;SDS011;67610;51.588;7.002;2023-04-08T14:22:21;11.55;;;7.63;;
78336;SDS011;67610;51.588;7.002;2023-04-08T14:24:46;10.35;;;6.88;;
78336;SDS011;67610;51.588;7.002;2023-04-08T14:27:11;10.98;;;6.72;;
78336;SDS011;67610;51.588;7.002;2023-04-08T14:29:37;9.70;;;6.80;;
78336;SDS011;67610;51.588;7.002;2023-04-08T14:32:02;10.35;;;6.63;;
78336;SDS011;67610;51.588;7.002;2023-04-08T14:34:28;9.00;;;6.35;;
78336;SDS011;67610;51.588;7.002;2023-04-08T14:36:53;11.93;;;8.18;;
78336;SDS011;67610;51.588;7.002;2023-04-08T14:39:18;10.77;;;7.35;;
78336;SDS011;67610;51.588;7.002;2023-04-08T14:41:44;10.80;;;7.15;;
78336;SDS011;67610;51.588;7.002;2023-04-08T14:44:11;12.05;;;7.47;;
78336;SDS011;67610;51.588;7.002;2023-04-08T14:46:37;10.82;;;7.63;;
78336;SDS011;67610;51.588;7.002;2023-04-08T14:49:02;10.90;;;7.10;;
78336;SDS011;67610;51.588;7.002;2023-04-08T14:51:27;11.00;;;7.03;;
78336;SDS011;67610;51.588;7.002;2023-04-08T14:53:54;10.90;;;7.22;;
78336;SDS011;67610;51.588;7.002;2023-04-08T14:56:19;10.40;;;6.93;;
78336;SDS011;67610;51.588;7.002;2023-04-08T14:58:45;10.60;;;7.57;;
78336;SDS011;67610;51.588;7.002;2023-04-08T15:01:10;10.85;;;6.38;;
78336;SDS011;67610;51.588;7.002;2023-04-08T15:03:36;10.48;;;6.88;;
78336;SDS011;67610;51.588;7.002;2023-04-08T15:06:01;11.10;;;7.32;;
78336;SDS011;67610;51.588;7.002;2023-04-08T15:08:27;11.57;;;7.32;;
78336;SDS011;67610;51.588;7.002;2023-04-08T15:10:52;11.32;;;7.63;;
78336;SDS011;67610;51.588;7.002;2023-04-08T15:13:18;14.80;;;8.73;;
78336;SDS011;67610;51.588;7.002;2023-04-08T15:15:44;11.00;;;7.65;;
78336;SDS011;67610;51.588;7.002;2023-04-08T15:18:09;11.55;;;8.00;;